Pagina principale
METAR-TAF:

METAR-TAF

Aeroporti :

Aeroporto internazionale di Banja Luka

Banja Luka, Bosnia-Erzegovina

latitudine: 44-47N, longitudine: 017-13E, altezza: 156 m

Osservazione

Il bollettino è stato emesso 34 minuti fa, alle 13:00 UTC
Vento 5 kt da nord, variando fra ovest/nord-ovest e nord-est
Temperature 13°C
Umidità 41%
Pressione 1035 hPa
Visibilità 10 km o più
nessuna nube inferiore a 1500 m e nessun cumulonembo

METAR: LQBK 021300Z 35005KT 300V040 CAVOK 13/00 Q1035 NOSIG

Ora: 14:34 (13:34 UTC)

Previsione

Il bollettino è stato emesso 2 ore e 34 minuti fa, alle 11:00 UTC
Previsione valida dal 02 alle 12 UTC al 03 alle 12 UTC
Vento 5 kt da est/nord-est
Visibilità 10 km o più
nessuna nube inferiore a 1500 m e nessun cumulonembo
Probabilità 30%
dal 03 alle 03 UTC al 03 alle 08 UTC
Visibilità: 3000 m
foschia

TAF: LQBK 021100Z 0212/0312 06005KT CAVOK TX14/0214Z TNM01/0306Z PROB30 0303/0308 3000 BR

Osservazioni e previsioni meteorologiche di più di 4000 aeroporti (messaggi METAR e TAF).

Le stazioni disponibili sono rappresentate dai dischi gialli e rossi sulla carta.

Puntare il mouse per vedere il nome della stazione.

Clicca sopra per visualizzare le osservazioni e previsioni meteorologiche.

Per cambiare la mappa : fare clic sui pulsanti verdi con una croce nera per ingrandire, il pulsante verde con un trattino per diminuire, o sulla freccia verde per le mappe adiacenti.


METAR-TAF: